Hoegh Transporter — LAKO7 — position and weather

sailwx.info

Track history (hours):
 
Tides and Currents Weather Stations Pressure Air Temp Water Temp Dewpoint Dewpoint Depression Visibility Wind Speed Wind Dir Waves Ship Positions

Hoegh Transporter

Last reported at 2014-Dec-12 02:33 UTC. Time now 2014-Dec-20 17:19 UTC.
Position N 39°21' W 076°10'.
Warning: this ship's position is 8 days out of date.

Length 199 m; draft 8 m.

Type: Cargo ship. MMSI: 257712000.

Date/timePositionNaut miles runAvg speedWind from/ knotsBaromVisibWave heightAir tempDewpointWater temp
2014-Dec-12 02:33N 39°21' W 076°10'1312.8
2014-Dec-12 01:33N 39°10' W 076°18'1211.9
2014-Dec-12 00:33N 39°14' W 076°33'2 1.7
2014-Dec-11 23:31N 39°15' W 076°35'0 0.0
2014-Dec-11 22:31N 39°15' W 076°35'0 0.0
2014-Dec-11 21:31N 39°15' W 076°35'0 0.0
2014-Dec-11 20:31N 39°15' W 076°35'0 0.0
2014-Dec-11 19:31N 39°15' W 076°35'0 0.0
2014-Dec-11 18:31N 39°15' W 076°35'0 0.0
2014-Dec-11 17:31N 39°15' W 076°35'0 0.0
2014-Dec-11 16:31N 39°15' W 076°35'0 0.0
2014-Dec-11 15:31N 39°15' W 076°35'0 0.0
2014-Dec-11 14:31N 39°15' W 076°35'0 0.0
2014-Dec-11 13:31N 39°15' W 076°35'0 0.0
2014-Dec-11 12:31N 39°15' W 076°35'0 0.0
2014-Dec-11 11:31N 39°15' W 076°35'0 0.3
2014-Dec-11 10:34N 39°15' W 076°34'6 6.2
2014-Dec-11 09:34N 39°11' W 076°28'1010.0
2014-Dec-11 08:34N 39°02' W 076°23'8 7.5
2014-Dec-11 07:33N 38°55' W 076°25'0 0.0
2014-Dec-11 06:33N 38°55' W 076°25'0 0.0
2014-Dec-11 05:33N 38°55' W 076°25'0 0.0
2014-Dec-11 04:33N 38°55' W 076°25'0 0.0
2014-Dec-11 03:30N 38°55' W 076°25'0 0.0
2014-Dec-11 02:33N 38°55' W 076°25'0 0.0
2014-Dec-11 01:30N 38°55' W 076°25'0 0.0
2014-Dec-11 00:33N 38°55' W 076°25'0 0.0
2014-Dec-10 23:33N 38°55' W 076°25'0 0.0
2014-Dec-10 22:33N 38°55' W 076°25'0 0.0
2014-Dec-10 21:33N 38°55' W 076°25'0 0.1
2014-Dec-10 20:33N 38°55' W 076°25'0 0.0
2014-Dec-10 19:33N 38°55' W 076°25'0 0.0
2014-Dec-10 18:33N 38°55' W 076°25'0 0.0
2014-Dec-10 17:33N 38°55' W 076°25'0 0.0
2014-Dec-10 16:33N 38°55' W 076°25'0 0.0
2014-Dec-10 15:33N 38°55' W 076°25'0 0.0
2014-Dec-10 14:33N 38°55' W 076°25'0 0.0
2014-Dec-10 13:33N 38°55' W 076°25'0 0.0
2014-Dec-10 12:33N 38°55' W 076°25'0 0.0
2014-Dec-10 11:33N 38°55' W 076°25'0 0.1
2014-Dec-10 10:33N 38°55' W 076°25'0 0.0
2014-Dec-10 09:33N 38°55' W 076°25'0 0.0
2014-Dec-10 08:33N 38°55' W 076°25'0 0.0
2014-Dec-10 07:33N 38°55' W 076°25'0 0.0
2014-Dec-10 06:33N 38°55' W 076°25'0 0.0
2014-Dec-10 05:33N 38°55' W 076°25'0 0.0
2014-Dec-10 04:33N 38°55' W 076°25'0 0.0
2014-Dec-10 03:33N 38°55' W 076°25'0 0.0
2014-Dec-10 02:33N 38°55' W 076°25'0 0.0
2014-Dec-10 01:33N 38°55' W 076°25'0 0.0
2014-Dec-10 00:33N 38°55' W 076°25'0 0.0
2014-Dec-09 23:33N 38°55' W 076°25'0 0.0
2014-Dec-09 22:33N 38°55' W 076°25'0 0.0
2014-Dec-09 21:33N 38°55' W 076°25'0 0.0
2014-Dec-09 20:33N 38°55' W 076°25'0 0.0
2014-Dec-09 19:30N 38°55' W 076°25'0 0.0
2014-Dec-09 18:33N 38°55' W 076°25'0 0.0
2014-Dec-09 17:33N 38°55' W 076°25'0 0.0
2014-Dec-09 16:33N 38°55' W 076°25'0 0.0
2014-Dec-09 15:33N 38°55' W 076°25'0 0.0
2014-Dec-09 14:33N 38°55' W 076°25'0 0.0
2014-Dec-09 13:30N 38°55' W 076°25'0 0.1
2014-Dec-09 12:27N 38°55' W 076°25'0 0.0
2014-Dec-09 11:33N 38°55' W 076°25'0 0.0
2014-Dec-09 10:33N 38°55' W 076°25'0 0.0
2014-Dec-09 09:33N 38°55' W 076°25'0 0.0
2014-Dec-09 08:33N 38°55' W 076°25'0 0.0
2014-Dec-09 07:33N 38°55' W 076°25'5 5.1
2014-Dec-09 06:33N 38°60' W 076°23'1111.4
2014-Dec-09 05:34N 39°10' W 076°18'  
2014-Dec-06 15:20N 38°56' W 073°55'1 1.0
2014-Dec-06 14:34N 38°57' W 073°54'1 1.0
2014-Dec-06 13:33N 38°57' W 073°53'1 1.0
2014-Dec-06 12:22N 38°57' W 073°52'1 1.1
2014-Dec-06 11:33N 38°57' W 073°50'1 1.1
2014-Dec-06 10:26N 38°57' W 073°49'1 1.2
2014-Dec-06 09:33N 38°57' W 073°47'1 1.3
2014-Dec-06 08:32N 38°57' W 073°46'44 8.7
2014-Dec-06 03:28N 39°41' W 073°50'1415.1
2014-Dec-06 02:33N 39°55' W 073°51'1514.8
2014-Dec-06 01:33N 40°10' W 073°50'1110.3
2014-Dec-06 00:28N 40°21' W 073°49'8 8.4
2014-Dec-05 23:33N 40°28' W 073°52'1211.8
2014-Dec-05 22:33N 40°37' W 074°03'5 5.4
2014-Dec-05 21:33N 40°40' W 074°08'1 1.4
2014-Dec-05 20:29N 40°42' W 074°09'0 0.0
2014-Dec-05 19:29N 40°42' W 074°09'0 0.0
2014-Dec-05 18:32N 40°42' W 074°09'0 0.0
2014-Dec-05 17:32N 40°42' W 074°09'0 0.0
2014-Dec-05 16:32N 40°42' W 074°09'0 0.0
2014-Dec-05 15:32N 40°42' W 074°09'0 0.0
2014-Dec-05 14:29N 40°42' W 074°09'0 0.0
2014-Dec-05 13:32N 40°42' W 074°09'0 0.0
2014-Dec-05 12:29N 40°42' W 074°09'0 0.0
2014-Dec-05 11:32N 40°42' W 074°09'0 0.0
2014-Dec-05 10:32N 40°42' W 074°09'0 0.0
2014-Dec-05 09:32N 40°42' W 074°09'0 0.0
2014-Dec-05 08:32N 40°42' W 074°09'0 0.0
2014-Dec-05 07:29N 40°42' W 074°09'0 0.0
2014-Dec-05 06:29N 40°42' W 074°09'0 0.0
2014-Dec-05 05:29N 40°42' W 074°09'0 0.0
2014-Dec-05 04:32N 40°42' W 074°09'0 0.0
2014-Dec-05 03:32N 40°42' W 074°09'0 0.0
2014-Dec-05 02:32N 40°42' W 074°09'0 0.0
2014-Dec-05 01:32N 40°42' W 074°09'0 0.0
2014-Dec-05 00:32N 40°42' W 074°09'0 0.0
2014-Dec-04 23:32N 40°42' W 074°09'0 0.0
2014-Dec-04 22:32N 40°42' W 074°09'1 0.7
2014-Dec-04 21:33N 40°41' W 074°08'5 4.7
2014-Dec-04 20:33N 40°38' W 074°03'1111.0
2014-Dec-04 19:33N 40°29' W 073°55'8 8.3
2014-Dec-04 18:32N 40°25' W 073°45'1210.1
2014-Dec-04 17:22N 40°18' W 073°33'2814.5
2014-Dec-04 15:24N 40°02' W 073°02'1112.6
2014-Dec-04 14:31N 39°51' W 072°60'30 3.0
2014-Dec-04 04:27N 39°22' W 072°49'3 2.2
2014-Dec-04 03:17N 39°23' W 072°52'2 2.2
2014-Dec-04 02:33N 39°23' W 072°54'2 2.2
2014-Dec-04 01:33N 39°24' W 072°57'3 2.3
2014-Dec-04 00:16N 39°23' W 073°00'2 2.5
2014-Dec-03 23:18N 39°22' W 073°03'  
Track history (hours):
 
Tides and Currents Weather Stations Pressure Air Temp Water Temp Dewpoint Dewpoint Depression Visibility Wind Speed Wind Dir Waves Ship Positions

Hoegh Transporter

Last reported at 2014-Dec-12 02:33 UTC. Time now 2014-Dec-20 17:19 UTC.
Position N 39°21' W 076°10'.
Warning: this ship's position is 8 days out of date.

Length 199 m; draft 8 m.

Type: Cargo ship. MMSI: 257712000.

Date/timePositionNaut miles runAvg speedWind from/ knotsBaromVisibWave heightAir tempDewpointWater temp
2014-Dec-12 02:33N 39°21' W 076°10'1312.8
2014-Dec-12 01:33N 39°10' W 076°18'1211.9
2014-Dec-12 00:33N 39°14' W 076°33'2 1.7
2014-Dec-11 23:31N 39°15' W 076°35'0 0.0
2014-Dec-11 22:31N 39°15' W 076°35'0 0.0
2014-Dec-11 21:31N 39°15' W 076°35'0 0.0
2014-Dec-11 20:31N 39°15' W 076°35'0 0.0
2014-Dec-11 19:31N 39°15' W 076°35'0 0.0
2014-Dec-11 18:31N 39°15' W 076°35'0 0.0
2014-Dec-11 17:31N 39°15' W 076°35'0 0.0
2014-Dec-11 16:31N 39°15' W 076°35'0 0.0
2014-Dec-11 15:31N 39°15' W 076°35'0 0.0
2014-Dec-11 14:31N 39°15' W 076°35'0 0.0
2014-Dec-11 13:31N 39°15' W 076°35'0 0.0
2014-Dec-11 12:31N 39°15' W 076°35'0 0.0
2014-Dec-11 11:31N 39°15' W 076°35'0 0.3
2014-Dec-11 10:34N 39°15' W 076°34'6 6.2
2014-Dec-11 09:34N 39°11' W 076°28'1010.0
2014-Dec-11 08:34N 39°02' W 076°23'8 7.5
2014-Dec-11 07:33N 38°55' W 076°25'0 0.0
2014-Dec-11 06:33N 38°55' W 076°25'0 0.0
2014-Dec-11 05:33N 38°55' W 076°25'0 0.0
2014-Dec-11 04:33N 38°55' W 076°25'0 0.0
2014-Dec-11 03:30N 38°55' W 076°25'0 0.0
2014-Dec-11 02:33N 38°55' W 076°25'0 0.0
2014-Dec-11 01:30N 38°55' W 076°25'0 0.0
2014-Dec-11 00:33N 38°55' W 076°25'0 0.0
2014-Dec-10 23:33N 38°55' W 076°25'0 0.0
2014-Dec-10 22:33N 38°55' W 076°25'0 0.0
2014-Dec-10 21:33N 38°55' W 076°25'0 0.1
2014-Dec-10 20:33N 38°55' W 076°25'0 0.0
2014-Dec-10 19:33N 38°55' W 076°25'0 0.0
2014-Dec-10 18:33N 38°55' W 076°25'0 0.0
2014-Dec-10 17:33N 38°55' W 076°25'0 0.0
2014-Dec-10 16:33N 38°55' W 076°25'0 0.0
2014-Dec-10 15:33N 38°55' W 076°25'0 0.0
2014-Dec-10 14:33N 38°55' W 076°25'0 0.0
2014-Dec-10 13:33N 38°55' W 076°25'0 0.0
2014-Dec-10 12:33N 38°55' W 076°25'0 0.0
2014-Dec-10 11:33N 38°55' W 076°25'0 0.1
2014-Dec-10 10:33N 38°55' W 076°25'0 0.0
2014-Dec-10 09:33N 38°55' W 076°25'0 0.0
2014-Dec-10 08:33N 38°55' W 076°25'0 0.0
2014-Dec-10 07:33N 38°55' W 076°25'0 0.0
2014-Dec-10 06:33N 38°55' W 076°25'0 0.0
2014-Dec-10 05:33N 38°55' W 076°25'0 0.0
2014-Dec-10 04:33N 38°55' W 076°25'0 0.0
2014-Dec-10 03:33N 38°55' W 076°25'0 0.0
2014-Dec-10 02:33N 38°55' W 076°25'0 0.0
2014-Dec-10 01:33N 38°55' W 076°25'0 0.0
2014-Dec-10 00:33N 38°55' W 076°25'0 0.0
2014-Dec-09 23:33N 38°55' W 076°25'0 0.0
2014-Dec-09 22:33N 38°55' W 076°25'0 0.0
2014-Dec-09 21:33N 38°55' W 076°25'0 0.0
2014-Dec-09 20:33N 38°55' W 076°25'0 0.0
2014-Dec-09 19:30N 38°55' W 076°25'0 0.0
2014-Dec-09 18:33N 38°55' W 076°25'0 0.0
2014-Dec-09 17:33N 38°55' W 076°25'0 0.0
2014-Dec-09 16:33N 38°55' W 076°25'0 0.0
2014-Dec-09 15:33N 38°55' W 076°25'0 0.0
2014-Dec-09 14:33N 38°55' W 076°25'0 0.0
2014-Dec-09 13:30N 38°55' W 076°25'0 0.1
2014-Dec-09 12:27N 38°55' W 076°25'0 0.0
2014-Dec-09 11:33N 38°55' W 076°25'0 0.0
2014-Dec-09 10:33N 38°55' W 076°25'0 0.0
2014-Dec-09 09:33N 38°55' W 076°25'0 0.0
2014-Dec-09 08:33N 38°55' W 076°25'0 0.0
2014-Dec-09 07:33N 38°55' W 076°25'5 5.1
2014-Dec-09 06:33N 38°60' W 076°23'1111.4
2014-Dec-09 05:34N 39°10' W 076°18'  
2014-Dec-06 15:20N 38°56' W 073°55'1 1.0
2014-Dec-06 14:34N 38°57' W 073°54'1 1.0
2014-Dec-06 13:33N 38°57' W 073°53'1 1.0
2014-Dec-06 12:22N 38°57' W 073°52'1 1.1
2014-Dec-06 11:33N 38°57' W 073°50'1 1.1
2014-Dec-06 10:26N 38°57' W 073°49'1 1.2
2014-Dec-06 09:33N 38°57' W 073°47'1 1.3
2014-Dec-06 08:32N 38°57' W 073°46'44 8.7
2014-Dec-06 03:28N 39°41' W 073°50'1415.1
2014-Dec-06 02:33N 39°55' W 073°51'1514.8
2014-Dec-06 01:33N 40°10' W 073°50'1110.3
2014-Dec-06 00:28N 40°21' W 073°49'8 8.4
2014-Dec-05 23:33N 40°28' W 073°52'1211.8
2014-Dec-05 22:33N 40°37' W 074°03'5 5.4
2014-Dec-05 21:33N 40°40' W 074°08'1 1.4
2014-Dec-05 20:29N 40°42' W 074°09'0 0.0
2014-Dec-05 19:29N 40°42' W 074°09'0 0.0
2014-Dec-05 18:32N 40°42' W 074°09'0 0.0
2014-Dec-05 17:32N 40°42' W 074°09'0 0.0
2014-Dec-05 16:32N 40°42' W 074°09'0 0.0
2014-Dec-05 15:32N 40°42' W 074°09'0 0.0
2014-Dec-05 14:29N 40°42' W 074°09'0 0.0
2014-Dec-05 13:32N 40°42' W 074°09'0 0.0
2014-Dec-05 12:29N 40°42' W 074°09'0 0.0
2014-Dec-05 11:32N 40°42' W 074°09'0 0.0
2014-Dec-05 10:32N 40°42' W 074°09'0 0.0
2014-Dec-05 09:32N 40°42' W 074°09'0 0.0
2014-Dec-05 08:32N 40°42' W 074°09'0 0.0
2014-Dec-05 07:29N 40°42' W 074°09'0 0.0
2014-Dec-05 06:29N 40°42' W 074°09'0 0.0
2014-Dec-05 05:29N 40°42' W 074°09'0 0.0
2014-Dec-05 04:32N 40°42' W 074°09'0 0.0
2014-Dec-05 03:32N 40°42' W 074°09'0 0.0
2014-Dec-05 02:32N 40°42' W 074°09'0 0.0
2014-Dec-05 01:32N 40°42' W 074°09'0 0.0
2014-Dec-05 00:32N 40°42' W 074°09'0 0.0
2014-Dec-04 23:32N 40°42' W 074°09'0 0.0
2014-Dec-04 22:32N 40°42' W 074°09'1 0.7
2014-Dec-04 21:33N 40°41' W 074°08'5 4.7
2014-Dec-04 20:33N 40°38' W 074°03'1111.0
2014-Dec-04 19:33N 40°29' W 073°55'8 8.3
2014-Dec-04 18:32N 40°25' W 073°45'1210.1
2014-Dec-04 17:22N 40°18' W 073°33'2814.5
2014-Dec-04 15:24N 40°02' W 073°02'1112.6
2014-Dec-04 14:31N 39°51' W 072°60'30 3.0
2014-Dec-04 04:27N 39°22' W 072°49'3 2.2
2014-Dec-04 03:17N 39°23' W 072°52'2 2.2
2014-Dec-04 02:33N 39°23' W 072°54'2 2.2
2014-Dec-04 01:33N 39°24' W 072°57'3 2.3
2014-Dec-04 00:16N 39°23' W 073°00'2 2.5
2014-Dec-03 23:18N 39°22' W 073°03'  

Dump ship's entire track history